createdAt,value
2018-08-19T00:00:07.910Z,19.97
2018-08-19T00:01:17.369Z,20
2018-08-19T00:02:27.355Z,19.94
2018-08-19T00:03:37.351Z,19.99
2018-08-19T00:04:47.321Z,19.89
2018-08-19T00:05:57.282Z,19.92
2018-08-19T00:07:07.259Z,19.94
2018-08-19T00:08:16.968Z,19.97
2018-08-19T00:09:26.938Z,19.96
2018-08-19T00:10:36.917Z,19.96
2018-08-19T00:11:46.633Z,19.94
2018-08-19T00:12:56.088Z,19.97
2018-08-19T00:14:05.546Z,20.03
2018-08-19T00:15:15.519Z,19.94
2018-08-19T00:16:25.499Z,19.96
2018-08-19T00:17:35.471Z,19.96
2018-08-19T00:18:45.205Z,19.87
2018-08-19T00:19:55.196Z,19.9
2018-08-19T00:21:05.179Z,19.84
2018-08-19T00:22:15.149Z,19.89
2018-08-19T00:23:25.131Z,19.87
2018-08-19T00:24:34.856Z,19.9
2018-08-19T00:25:44.576Z,19.84
2018-08-19T00:26:54.544Z,19.87
2018-08-19T00:28:04.265Z,19.84
2018-08-19T00:29:14.228Z,19.84
2018-08-19T00:30:23.945Z,19.72
2018-08-19T00:31:33.927Z,19.82
2018-08-19T00:32:43.889Z,19.81
2018-08-19T00:33:53.863Z,19.87
2018-08-19T00:35:03.855Z,19.82
2018-08-19T00:36:13.823Z,19.78
2018-08-19T00:37:23.810Z,19.71
2018-08-19T00:38:33.771Z,19.85
2018-08-19T00:39:43.830Z,19.77
2018-08-19T00:40:53.799Z,19.81
2018-08-19T00:42:03.521Z,19.74
2018-08-19T00:43:13.505Z,19.81
2018-08-19T00:44:22.712Z,19.7
2018-08-19T00:45:32.687Z,19.84
2018-08-19T00:46:42.413Z,19.75
2018-08-19T00:47:52.122Z,19.77
2018-08-19T00:49:02.127Z,19.77
2018-08-19T00:50:12.102Z,19.77
2018-08-19T00:51:22.080Z,19.74
2018-08-19T00:52:31.781Z,19.7
2018-08-19T00:53:41.776Z,19.67
2018-08-19T00:54:51.764Z,19.72
2018-08-19T00:56:01.714Z,19.7
2018-08-19T00:57:11.422Z,19.64
2018-08-19T00:58:21.145Z,19.67
2018-08-19T00:59:30.871Z,19.59
2018-08-19T01:00:40.580Z,19.64
2018-08-19T01:01:50.299Z,19.62
2018-08-19T01:03:00.300Z,19.56
2018-08-19T01:04:10.005Z,19.49
2018-08-19T01:05:19.976Z,19.45
2018-08-19T01:06:29.687Z,19.42
2018-08-19T01:07:39.126Z,19.52
2018-08-19T01:08:49.103Z,19.48
2018-08-19T01:09:59.071Z,19.47
2018-08-19T01:11:09.054Z,19.49
2018-08-19T01:12:19.015Z,19.47
2018-08-19T01:13:28.995Z,19.42
2018-08-19T01:14:38.701Z,19.41
2018-08-19T01:15:48.674Z,19.42
2018-08-19T01:16:58.665Z,19.44
2018-08-19T01:18:08.664Z,19.45
2018-08-19T01:19:18.633Z,19.39
2018-08-19T01:20:28.593Z,19.38
2018-08-19T01:21:38.298Z,19.39
2018-08-19T01:22:48.048Z,19.38
2018-08-19T01:23:57.822Z,19.38
2018-08-19T01:25:07.538Z,19.38
2018-08-19T01:26:17.515Z,19.27
2018-08-19T01:27:26.965Z,19.29
2018-08-19T01:28:36.933Z,19.19
2018-08-19T01:29:46.911Z,19.19
2018-08-19T01:30:56.883Z,19.26
2018-08-19T01:32:06.845Z,19.22
2018-08-19T01:33:16.302Z,19.22
2018-08-19T01:34:26.270Z,19.17
2018-08-19T01:35:35.980Z,19.15
2018-08-19T01:36:45.670Z,19.16
2018-08-19T01:37:55.392Z,19.07
2018-08-19T01:39:05.364Z,19.07
2018-08-19T01:40:15.333Z,19.07
2018-08-19T01:41:25.058Z,19.07
2018-08-19T01:42:35.019Z,19
2018-08-19T01:43:44.991Z,18.91
2018-08-19T01:44:54.954Z,18.97
2018-08-19T01:46:04.936Z,18.85
2018-08-19T01:47:14.667Z,18.94
2018-08-19T01:48:24.646Z,18.76
2018-08-19T01:49:34.607Z,18.76
2018-08-19T01:50:44.572Z,18.78
2018-08-19T01:51:54.540Z,18.67
2018-08-19T01:53:04.534Z,18.58
2018-08-19T01:54:14.244Z,18.63
2018-08-19T01:55:23.950Z,18.58
2018-08-19T01:56:33.921Z,18.6
2018-08-19T01:57:43.645Z,18.57
2018-08-19T01:58:53.624Z,18.52
2018-08-19T02:00:03.597Z,18.48
2018-08-19T02:01:13.315Z,18.49
2018-08-19T02:02:23.032Z,18.48
2018-08-19T02:03:32.999Z,18.46
2018-08-19T02:04:43.006Z,18.43
2018-08-19T02:05:52.728Z,18.33
2018-08-19T02:07:02.439Z,18.33
2018-08-19T02:08:12.461Z,18.39
2018-08-19T02:09:22.169Z,18.41
2018-08-19T02:10:32.162Z,18.41
2018-08-19T02:11:41.896Z,18.37
2018-08-19T02:12:51.660Z,18.41
2018-08-19T02:14:01.631Z,18.39
2018-08-19T02:15:11.620Z,18.33
2018-08-19T02:16:21.588Z,18.28
2018-08-19T02:17:31.545Z,18.24
2018-08-19T02:18:41.500Z,18.24
2018-08-19T02:19:51.471Z,18.19
2018-08-19T02:21:01.450Z,18.27
2018-08-19T02:22:11.433Z,18.15
2018-08-19T02:23:21.149Z,18.15
2018-08-19T02:24:30.851Z,18.08
2018-08-19T02:25:40.822Z,18.12
2018-08-19T02:26:50.540Z,18.26
2018-08-19T02:28:00.527Z,18.24
2018-08-19T02:29:10.232Z,18.26
2018-08-19T02:30:19.941Z,18.21
2018-08-19T02:31:29.929Z,18.21
2018-08-19T02:32:39.895Z,18.21
2018-08-19T02:33:49.854Z,18.27
2018-08-19T02:34:59.558Z,18.21
2018-08-19T02:36:09.520Z,18.24
2018-08-19T02:37:19.218Z,18.33
2018-08-19T02:38:29.191Z,18.36
2018-08-19T02:39:39.194Z,18.39
2018-08-19T02:40:48.907Z,18.34
2018-08-19T02:41:58.609Z,18.36
2018-08-19T02:43:07.806Z,18.33
2018-08-19T02:44:17.329Z,18.41
2018-08-19T02:45:27.077Z,18.39
2018-08-19T02:46:37.056Z,18.34
2018-08-19T02:47:46.771Z,18.37
2018-08-19T02:48:56.738Z,18.39
2018-08-19T02:50:06.449Z,18.39
2018-08-19T02:51:16.158Z,18.45
2018-08-19T02:52:26.142Z,18.42
2018-08-19T02:53:36.115Z,18.34
2018-08-19T02:54:45.843Z,18.48
2018-08-19T02:55:55.807Z,18.45
2018-08-19T02:57:05.786Z,18.45
2018-08-19T02:58:15.756Z,18.45
2018-08-19T02:59:25.228Z,18.43
2018-08-19T03:00:35.204Z,18.37
2018-08-19T03:01:45.200Z,18.41
2018-08-19T03:02:54.903Z,18.45
2018-08-19T03:04:04.356Z,18.42
2018-08-19T03:05:14.325Z,18.41
2018-08-19T03:06:24.315Z,18.43
2018-08-19T03:07:34.014Z,18.43
2018-08-19T03:08:43.975Z,18.46
2018-08-19T03:09:53.941Z,18.45
2018-08-19T03:11:03.970Z,18.34
2018-08-19T03:12:13.931Z,18.37
2018-08-19T03:13:23.893Z,18.39
2018-08-19T03:14:33.595Z,18.37
2018-08-19T03:15:43.304Z,18.45
2018-08-19T03:16:52.757Z,18.36
2018-08-19T03:18:02.465Z,18.26
2018-08-19T03:19:12.197Z,18.21
2018-08-19T03:20:22.162Z,18.21
2018-08-19T03:21:31.884Z,18.11
2018-08-19T03:22:41.867Z,18.15
2018-08-19T03:23:51.834Z,18.09
2018-08-19T03:25:01.814Z,18.03
2018-08-19T03:26:11.780Z,18.03
2018-08-19T03:27:21.769Z,17.97
2018-08-19T03:28:31.740Z,17.94
2018-08-19T03:29:41.186Z,17.93
2018-08-19T03:30:51.165Z,17.88
2018-08-19T03:32:01.132Z,17.88
2018-08-19T03:33:11.110Z,17.86
2018-08-19T03:34:21.092Z,17.84
2018-08-19T03:35:31.054Z,17.93
2018-08-19T03:36:40.755Z,17.9
2018-08-19T03:37:50.820Z,17.8
2018-08-19T03:39:00.103Z,17.84
2018-08-19T03:40:10.060Z,17.86
2018-08-19T03:41:20.025Z,17.76
2018-08-19T03:42:29.732Z,17.75
2018-08-19T03:43:39.709Z,17.63
2018-08-19T03:44:49.676Z,17.68
2018-08-19T03:45:59.644Z,17.66
2018-08-19T03:47:09.359Z,17.59
2018-08-19T03:48:19.321Z,17.68
2018-08-19T03:49:29.025Z,17.66
2018-08-19T03:50:38.985Z,17.71
2018-08-19T03:51:48.726Z,17.68
2018-08-19T03:52:58.452Z,17.52
2018-08-19T03:54:08.165Z,17.5
2018-08-19T03:55:17.888Z,17.52
2018-08-19T03:56:27.908Z,17.5
2018-08-19T03:57:37.884Z,17.42
2018-08-19T03:58:47.848Z,17.44
2018-08-19T03:59:57.804Z,17.46
2018-08-19T04:01:07.754Z,17.46
2018-08-19T04:02:17.716Z,17.52
2018-08-19T04:03:27.695Z,17.47
2018-08-19T04:04:37.656Z,17.52
2018-08-19T04:05:47.113Z,17.47
2018-08-19T04:06:57.074Z,17.52
2018-08-19T04:08:07.039Z,17.49
2018-08-19T04:09:16.739Z,17.5
2018-08-19T04:10:26.712Z,17.52
2018-08-19T04:11:36.688Z,17.52
2018-08-19T04:12:46.646Z,17.53
2018-08-19T04:13:56.365Z,17.49
2018-08-19T04:15:05.811Z,17.56
2018-08-19T04:16:15.777Z,17.65
2018-08-19T04:17:25.472Z,17.71
2018-08-19T04:18:35.198Z,17.68
2018-08-19T04:19:45.103Z,17.68
2018-08-19T04:20:55.067Z,17.65
2018-08-19T04:22:05.035Z,17.65
2018-08-19T04:23:15.026Z,17.66
2018-08-19T04:24:25.028Z,17.68
2018-08-19T04:25:34.992Z,17.76
2018-08-19T04:26:44.950Z,17.72
2018-08-19T04:27:54.956Z,17.79
2018-08-19T04:29:04.934Z,17.75
2018-08-19T04:30:14.899Z,17.75
2018-08-19T04:31:24.863Z,17.86
2018-08-19T04:32:34.828Z,17.82
2018-08-19T04:33:44.278Z,17.82
2018-08-19T04:34:53.988Z,17.84
2018-08-19T04:36:03.953Z,17.86
2018-08-19T04:37:13.926Z,17.84
2018-08-19T04:38:23.884Z,17.87
2018-08-19T04:39:33.336Z,17.86
2018-08-19T04:40:43.363Z,17.94
2018-08-19T04:41:53.393Z,17.93
2018-08-19T04:43:03.104Z,17.94
2018-08-19T04:44:13.086Z,17.97
2018-08-19T04:45:23.117Z,18
2018-08-19T04:46:33.088Z,18.02
2018-08-19T04:47:42.796Z,18
2018-08-19T04:48:52.510Z,18.08
2018-08-19T04:50:02.491Z,18.11
2018-08-19T04:51:12.484Z,18.11
2018-08-19T04:52:22.446Z,18.06
2018-08-19T04:53:32.402Z,18.08
2018-08-19T04:54:42.371Z,18.15
2018-08-19T04:55:52.088Z,18.15
2018-08-19T04:57:02.063Z,18.13
2018-08-19T04:58:12.033Z,18.23
2018-08-19T04:59:21.999Z,18.27
2018-08-19T05:00:31.962Z,18.31
2018-08-19T05:01:41.941Z,18.3
2018-08-19T05:02:51.655Z,18.31
2018-08-19T05:04:01.361Z,18.41
2018-08-19T05:05:11.329Z,18.37
2018-08-19T05:06:20.782Z,18.39
2018-08-19T05:07:30.755Z,18.45
2018-08-19T05:08:40.724Z,18.46
2018-08-19T05:09:50.695Z,18.51
2018-08-19T05:11:00.669Z,18.58
2018-08-19T05:12:10.390Z,18.57
2018-08-19T05:13:19.833Z,18.61
2018-08-19T05:14:29.282Z,18.61
2018-08-19T05:15:39.500Z,18.58
2018-08-19T05:16:49.340Z,18.68
2018-08-19T05:17:59.334Z,18.7
2018-08-19T05:19:09.051Z,18.74
2018-08-19T05:20:18.762Z,18.78
2018-08-19T05:21:28.734Z,18.83
2018-08-19T05:22:38.886Z,18.83
2018-08-19T05:23:49.149Z,18.91
2018-08-19T05:24:58.849Z,18.98
2018-08-19T05:26:08.299Z,19.07
2018-08-19T05:27:18.006Z,19.05
2018-08-19T05:28:28.315Z,19.16
2018-08-19T05:29:38.405Z,19.17
2018-08-19T05:30:48.379Z,19.16
2018-08-19T05:31:57.822Z,19.15
2018-08-19T05:33:07.528Z,19.26
2018-08-19T05:34:17.253Z,19.2
2018-08-19T05:35:27.221Z,19.24
2018-08-19T05:36:37.194Z,19.35
2018-08-19T05:37:46.942Z,19.37
2018-08-19T05:38:56.933Z,19.35
2018-08-19T05:40:06.902Z,19.47
2018-08-19T05:41:16.863Z,19.42
2018-08-19T05:42:26.837Z,19.52
2018-08-19T05:43:36.817Z,19.53
2018-08-19T05:44:46.832Z,19.49
2018-08-19T05:45:56.571Z,19.42
2018-08-19T05:47:06.704Z,19.48
2018-08-19T05:48:16.251Z,19.44
2018-08-19T05:49:26.215Z,19.42
2018-08-19T05:50:36.200Z,19.41
2018-08-19T05:51:46.161Z,19.44
2018-08-19T05:52:56.129Z,19.55
2018-08-19T05:54:06.575Z,19.57
2018-08-19T05:55:16.723Z,19.6
2018-08-19T05:56:26.709Z,19.6
2018-08-19T05:57:36.162Z,19.63
2018-08-19T05:58:45.883Z,19.75
2018-08-19T05:59:55.598Z,19.72
2018-08-19T06:01:05.650Z,19.77
2018-08-19T06:02:15.648Z,19.74
2018-08-19T06:03:25.358Z,19.82
2018-08-19T06:04:34.798Z,19.87
2018-08-19T06:05:44.519Z,19.92
2018-08-19T06:06:54.231Z,19.99
2018-08-19T06:08:04.187Z,20.08
2018-08-19T06:09:14.153Z,20.11
2018-08-19T06:10:24.113Z,20.17
2018-08-19T06:11:34.074Z,20.21
2018-08-19T06:12:43.781Z,20.24
2018-08-19T06:13:53.490Z,20.34
2018-08-19T06:15:03.469Z,20.33
2018-08-19T06:16:13.183Z,20.37
2018-08-19T06:17:23.159Z,20.32
2018-08-19T06:18:33.128Z,20.44
2018-08-19T06:19:43.111Z,20.56
2018-08-19T06:20:53.085Z,20.48
2018-08-19T06:22:03.439Z,20.48
2018-08-19T06:23:13.281Z,20.5
2018-08-19T06:24:23.242Z,20.53
2018-08-19T06:25:33.236Z,20.66
2018-08-19T06:26:43.215Z,20.74
2018-08-19T06:27:53.186Z,20.75
2018-08-19T06:29:03.153Z,20.75
2018-08-19T06:30:13.126Z,20.88
2018-08-19T06:31:23.107Z,20.96
2018-08-19T06:32:33.080Z,21.01
2018-08-19T06:33:43.053Z,20.95
2018-08-19T06:34:53.263Z,20.88
2018-08-19T06:36:03.054Z,20.98
2018-08-19T06:37:13.107Z,21.13
2018-08-19T06:38:23.075Z,21.08
2018-08-19T06:39:33.051Z,21.22
2018-08-19T06:40:42.504Z,21.29
2018-08-19T06:41:51.700Z,21.32
2018-08-19T06:43:01.728Z,21.35
2018-08-19T06:44:11.835Z,21.35
2018-08-19T06:45:21.533Z,21.4
2018-08-19T06:46:30.996Z,21.45
2018-08-19T06:47:40.968Z,21.54
2018-08-19T06:48:50.937Z,21.48
2018-08-19T06:50:00.641Z,21.56
2018-08-19T06:51:10.703Z,21.6
2018-08-19T06:52:20.859Z,21.47
2018-08-19T06:53:30.871Z,21.56
2018-08-19T06:54:40.589Z,21.5
2018-08-19T06:55:50.576Z,21.56
2018-08-19T06:57:00.545Z,21.63
2018-08-19T06:58:10.544Z,21.68
2018-08-19T06:59:20.271Z,21.7
2018-08-19T07:00:29.991Z,21.7
2018-08-19T07:01:39.968Z,21.78
2018-08-19T07:02:49.682Z,21.85
2018-08-19T07:03:59.504Z,21.85
2018-08-19T07:05:09.357Z,21.89
2018-08-19T07:06:19.063Z,21.91
2018-08-19T07:07:29.019Z,22.03
2018-08-19T07:08:38.991Z,22.08
2018-08-19T07:09:48.709Z,22.18
2018-08-19T07:10:58.694Z,22.23
2018-08-19T07:12:08.405Z,22.16
2018-08-19T07:13:18.129Z,22.08
2018-08-19T07:14:28.094Z,22.21
2018-08-19T07:15:38.360Z,22.25
2018-08-19T07:16:48.341Z,22.3
2018-08-19T07:17:58.049Z,22.33
2018-08-19T07:19:08.012Z,22.31
2018-08-19T07:20:17.483Z,22.4
2018-08-19T07:21:27.458Z,22.36
2018-08-19T07:22:37.165Z,22.51
2018-08-19T07:23:47.430Z,22.53
2018-08-19T07:24:57.674Z,22.58
2018-08-19T07:26:07.385Z,22.58
2018-08-19T07:27:17.371Z,22.63
2018-08-19T07:28:27.089Z,22.76
2018-08-19T07:29:36.930Z,22.78
2018-08-19T07:30:46.754Z,22.88
2018-08-19T07:31:56.721Z,22.92
2018-08-19T07:33:06.692Z,22.98
2018-08-19T07:34:16.658Z,23.01
2018-08-19T07:35:26.641Z,23.06
2018-08-19T07:36:36.612Z,23.01
2018-08-19T07:37:46.591Z,22.99
2018-08-19T07:38:56.574Z,23.06
2018-08-19T07:40:06.052Z,23.13
2018-08-19T07:41:16.011Z,23.25
2018-08-19T07:42:26.008Z,23.33
2018-08-19T07:43:35.981Z,23.47
2018-08-19T07:44:45.688Z,23.48
2018-08-19T07:45:55.654Z,23.66
2018-08-19T07:47:05.613Z,23.67
2018-08-19T07:48:15.601Z,23.89
2018-08-19T07:49:25.305Z,23.96
2018-08-19T07:50:35.027Z,23.92
2018-08-19T07:51:45.189Z,23.88
2018-08-19T07:52:54.922Z,23.96
2018-08-19T07:54:04.650Z,23.99
2018-08-19T07:55:14.624Z,24.06
2018-08-19T07:56:24.599Z,24.21
2018-08-19T07:57:34.593Z,24.19
2018-08-19T07:58:44.564Z,24.22
2018-08-19T07:59:54.542Z,24.24
2018-08-19T08:01:04.533Z,24.18
2018-08-19T08:02:14.516Z,24.1
2018-08-19T08:03:24.217Z,24.04
2018-08-19T08:04:34.211Z,24.04
2018-08-19T08:05:43.915Z,24.14
2018-08-19T08:06:53.634Z,24.04
2018-08-19T08:08:03.623Z,24.03
2018-08-19T08:09:13.598Z,24
2018-08-19T08:10:23.568Z,24
2018-08-19T08:11:33.282Z,24.03
2018-08-19T08:12:43.251Z,24
2018-08-19T08:13:52.806Z,24.04
2018-08-19T08:15:03.120Z,24.22
2018-08-19T08:16:12.575Z,24.24
2018-08-19T08:17:22.290Z,24.31
2018-08-19T08:18:31.995Z,24.41
2018-08-19T08:19:41.981Z,24.44
2018-08-19T08:20:51.942Z,24.51
2018-08-19T08:22:01.662Z,24.59
2018-08-19T08:23:11.683Z,24.68
2018-08-19T08:24:21.681Z,24.81
2018-08-19T08:25:31.647Z,24.86
2018-08-19T08:26:41.372Z,25.04
2018-08-19T08:27:51.099Z,24.99
2018-08-19T08:29:01.106Z,25.07
2018-08-19T08:30:11.143Z,25.22
2018-08-19T08:31:21.116Z,25.26
2018-08-19T08:32:31.085Z,25.31
2018-08-19T08:33:41.066Z,25.51
2018-08-19T08:34:51.072Z,25.62
2018-08-19T08:36:00.800Z,25.83
2018-08-19T08:37:10.782Z,26.06
2018-08-19T08:38:20.490Z,26.3
2018-08-19T08:39:29.950Z,26.7
2018-08-19T08:40:40.198Z,26.93
2018-08-19T08:41:50.560Z,27.3
2018-08-19T08:43:00.540Z,27.55
2018-08-19T08:44:10.524Z,27.76
2018-08-19T08:45:20.252Z,27.72
2018-08-19T08:46:30.237Z,27.72
2018-08-19T08:47:40.650Z,27.78
2018-08-19T08:48:50.459Z,27.83
2018-08-19T08:50:00.199Z,27.98
2018-08-19T08:51:09.940Z,28
2018-08-19T08:52:19.930Z,28.09
2018-08-19T08:53:30.057Z,28.16
2018-08-19T08:54:40.046Z,28.15
2018-08-19T08:55:49.506Z,28.12
2018-08-19T08:56:59.497Z,28.08
2018-08-19T08:58:09.473Z,27.93
2018-08-19T08:59:19.453Z,28.15
2018-08-19T09:00:29.168Z,28.1
2018-08-19T09:01:39.148Z,28.13
2018-08-19T09:02:49.129Z,28.16
2018-08-19T09:03:58.889Z,28
2018-08-19T09:05:08.869Z,28.03
2018-08-19T09:06:18.855Z,28.13
2018-08-19T09:07:28.876Z,28.1
2018-08-19T09:08:38.592Z,28.09
2018-08-19T09:09:48.584Z,28.27
2018-08-19T09:10:58.565Z,28.47
2018-08-19T09:12:08.549Z,28.71
2018-08-19T09:13:18.538Z,29
2018-08-19T09:14:28.521Z,29.13
2018-08-19T09:15:38.249Z,29
2018-08-19T09:16:47.461Z,28.93
2018-08-19T09:17:57.460Z,28.86
2018-08-19T09:19:07.449Z,29
2018-08-19T09:20:17.231Z,28.77
2018-08-19T09:21:27.207Z,28.59
2018-08-19T09:22:37.204Z,28.77
2018-08-19T09:23:47.195Z,28.7
2018-08-19T09:24:57.177Z,28.72
2018-08-19T09:26:06.936Z,28.83
2018-08-19T09:27:16.919Z,28.96
2018-08-19T09:28:26.903Z,29.12
2018-08-19T09:29:36.367Z,29.39
2018-08-19T09:30:46.084Z,29.61
2018-08-19T09:31:55.804Z,29.79
2018-08-19T09:33:06.045Z,29.87
2018-08-19T09:34:16.022Z,29.95
2018-08-19T09:35:25.751Z,30.1
2018-08-19T09:36:35.751Z,30.44
2018-08-19T09:37:45.464Z,30.81
2018-08-19T09:38:55.215Z,30.85
2018-08-19T09:40:05.153Z,31.07
2018-08-19T09:41:15.147Z,31.11
2018-08-19T09:42:25.151Z,31.04
2018-08-19T09:43:34.892Z,30.52
2018-08-19T09:44:44.875Z,30.44
2018-08-19T09:45:54.881Z,30.18
2018-08-19T09:47:04.923Z,30.2
2018-08-19T09:48:14.927Z,29.99
2018-08-19T09:49:24.946Z,29.76
2018-08-19T09:50:34.932Z,29.98
2018-08-19T09:51:44.936Z,30.21
2018-08-19T09:52:54.675Z,30.56
2018-08-19T09:54:04.702Z,30.49
2018-08-19T09:55:14.753Z,30.67
2018-08-19T09:56:24.751Z,30.35
2018-08-19T09:57:34.928Z,30.2
2018-08-19T09:58:44.868Z,30.03
2018-08-19T09:59:54.865Z,29.79
2018-08-19T10:01:04.598Z,30.1
2018-08-19T10:02:14.309Z,30.43
2018-08-19T10:03:24.046Z,30.62
2018-08-19T10:04:33.761Z,30.89
2018-08-19T10:05:43.229Z,30.71
2018-08-19T10:06:52.956Z,30.78
2018-08-19T10:08:02.671Z,31.14
2018-08-19T10:09:12.139Z,31.32
2018-08-19T10:10:22.130Z,31.41
2018-08-19T10:11:31.842Z,31.64
2018-08-19T10:12:41.592Z,31.87
2018-08-19T10:13:51.659Z,31.73
2018-08-19T10:15:01.649Z,31.97
2018-08-19T10:16:11.633Z,31.97
2018-08-19T10:17:21.373Z,31.85
2018-08-19T10:18:31.382Z,31.98
2018-08-19T10:19:41.102Z,31.62
2018-08-19T10:20:50.823Z,31.78
2018-08-19T10:22:00.543Z,32.19
2018-08-19T10:23:10.564Z,32.38
2018-08-19T10:24:20.561Z,32.34
2018-08-19T10:25:30.541Z,32.44
2018-08-19T10:26:40.739Z,32.57
2018-08-19T10:27:50.792Z,32.76
2018-08-19T10:29:00.812Z,32.9
2018-08-19T10:30:10.797Z,32.73
2018-08-19T10:31:20.591Z,32
2018-08-19T10:32:30.596Z,31.95
2018-08-19T10:33:40.325Z,32.05
2018-08-19T10:34:50.313Z,32.39
2018-08-19T10:36:00.315Z,32.67
2018-08-19T10:37:10.045Z,32.94
2018-08-19T10:38:20.066Z,33.01
2018-08-19T10:39:29.832Z,33.36
2018-08-19T10:40:39.311Z,33.22
2018-08-19T10:41:48.526Z,33.47
2018-08-19T10:42:58.515Z,33.57
2018-08-19T10:44:07.989Z,33.73
2018-08-19T10:45:17.965Z,33.77
2018-08-19T10:46:27.606Z,33.51
2018-08-19T10:47:37.611Z,33.36
2018-08-19T10:48:47.353Z,33.28
2018-08-19T10:49:57.335Z,33.01
2018-08-19T10:51:07.133Z,32.76
2018-08-19T10:52:17.129Z,32.81
2018-08-19T10:53:27.037Z,33.15
2018-08-19T10:54:36.932Z,33.05
2018-08-19T10:55:46.922Z,32.67
2018-08-19T10:56:56.646Z,32.48
2018-08-19T10:58:06.377Z,32.17
2018-08-19T10:59:16.159Z,32.26
2018-08-19T11:00:26.160Z,32.59
2018-08-19T11:01:36.143Z,33.15
2018-08-19T11:02:45.368Z,33.17
2018-08-19T11:03:55.128Z,33.04
2018-08-19T11:05:04.868Z,33.22
2018-08-19T11:06:14.846Z,33.73
2018-08-19T11:07:24.836Z,34.26
2018-08-19T11:08:34.832Z,34.79
2018-08-19T11:09:44.826Z,35.12
2018-08-19T11:10:54.561Z,35.54
2018-08-19T11:12:04.295Z,36.06
2018-08-19T11:13:14.333Z,35.93
2018-08-19T11:14:24.125Z,35.94
2018-08-19T11:15:33.861Z,35.91
2018-08-19T11:16:43.854Z,35.69
2018-08-19T11:17:53.586Z,35.38
2018-08-19T11:19:03.584Z,34.89
2018-08-19T11:20:13.310Z,34.51
2018-08-19T11:21:23.315Z,33.81
2018-08-19T11:22:33.051Z,33.28
2018-08-19T11:23:42.806Z,32.95
2018-08-19T11:24:52.820Z,33.22
2018-08-19T11:26:02.821Z,33.32
2018-08-19T11:27:12.547Z,33.57
2018-08-19T11:28:22.280Z,33.84
2018-08-19T11:29:32.022Z,33.58
2018-08-19T11:30:41.769Z,33.69
2018-08-19T11:31:51.766Z,33.65
2018-08-19T11:33:01.751Z,34.22
2018-08-19T11:34:11.513Z,34.93
2018-08-19T11:35:21.508Z,35.13
2018-08-19T11:36:31.246Z,34.75
2018-08-19T11:37:40.978Z,34.43
2018-08-19T11:38:50.698Z,34.03
2018-08-19T11:40:00.428Z,33.72
2018-08-19T11:41:10.434Z,33.42
2018-08-19T11:42:20.432Z,33.48
2018-08-19T11:43:30.714Z,33.63
2018-08-19T11:44:40.805Z,33.7
2018-08-19T11:45:50.553Z,32.59
2018-08-19T11:47:00.531Z,32.23
2018-08-19T11:48:10.265Z,31.85
2018-08-19T11:49:20.014Z,31.77
2018-08-19T11:50:29.997Z,31.78
2018-08-19T11:51:39.722Z,31.87
2018-08-19T11:52:49.473Z,31.62
2018-08-19T11:53:58.938Z,31.6
2018-08-19T11:55:08.927Z,31.57
2018-08-19T11:56:19.025Z,31.62
2018-08-19T11:57:28.764Z,32.01
2018-08-19T11:58:38.748Z,32.56
2018-08-19T11:59:48.729Z,33.1
2018-08-19T12:00:58.842Z,33.61
2018-08-19T12:02:08.868Z,33.65
2018-08-19T12:03:18.863Z,33.35
2018-08-19T12:04:28.595Z,33.15
2018-08-19T12:05:38.346Z,33.39
2018-08-19T12:06:48.080Z,33.58
2018-08-19T12:07:57.805Z,33.82
2018-08-19T12:09:07.800Z,34.14
2018-08-19T12:10:17.545Z,34.18
2018-08-19T12:11:27.014Z,34.6
2018-08-19T12:12:36.733Z,35.27
2018-08-19T12:13:46.723Z,34.93
2018-08-19T12:14:56.521Z,34.19
2018-08-19T12:16:06.577Z,34.07
2018-08-19T12:17:16.575Z,33.47
2018-08-19T12:18:26.335Z,33
2018-08-19T12:19:36.343Z,32.83
2018-08-19T12:20:46.328Z,32.78
2018-08-19T12:21:56.319Z,32.76
2018-08-19T12:23:06.063Z,32.79
2018-08-19T12:24:15.816Z,32.93
2018-08-19T12:25:25.791Z,32.81
2018-08-19T12:26:35.798Z,32.59
2018-08-19T12:27:45.807Z,32.81
2018-08-19T12:28:56.020Z,33.05
2018-08-19T12:30:05.748Z,33.22
2018-08-19T12:31:15.483Z,33.22
2018-08-19T12:32:24.948Z,33.04
2018-08-19T12:33:34.945Z,33.28
2018-08-19T12:34:44.930Z,33.45
2018-08-19T12:35:54.929Z,33.4
2018-08-19T12:37:04.792Z,33.29
2018-08-19T12:38:14.691Z,33.08
2018-08-19T12:39:24.686Z,32.76
2018-08-19T12:40:34.428Z,32.24
2018-08-19T12:41:44.411Z,31.77
2018-08-19T12:42:54.421Z,31.69
2018-08-19T12:44:04.426Z,31.92
2018-08-19T12:45:13.954Z,32.19
2018-08-19T12:46:23.678Z,32.46
2018-08-19T12:47:33.406Z,32.72
2018-08-19T12:48:43.391Z,32.49
2018-08-19T12:49:53.372Z,32.27
2018-08-19T12:51:03.384Z,32.61
2018-08-19T12:52:13.142Z,33
2018-08-19T12:53:23.154Z,33.5
2018-08-19T12:54:33.149Z,33.53
2018-08-19T12:55:42.922Z,33.97
2018-08-19T12:56:52.747Z,33.91
2018-08-19T12:58:02.731Z,33.55
2018-08-19T12:59:12.191Z,33.15
2018-08-19T13:00:22.179Z,33.13
2018-08-19T13:01:31.907Z,33.13
2018-08-19T13:02:41.974Z,33.39
2018-08-19T13:03:51.979Z,33.66
2018-08-19T13:05:01.475Z,34.24
2018-08-19T13:06:10.942Z,34.71
2018-08-19T13:07:20.425Z,35.42
2018-08-19T13:08:30.426Z,35.71
2018-08-19T13:09:40.419Z,35.76
2018-08-19T13:10:50.391Z,35.84
2018-08-19T13:12:00.122Z,36.18
2018-08-19T13:13:10.137Z,36.09
2018-08-19T13:14:20.138Z,35.71
2018-08-19T13:15:29.867Z,35.63
2018-08-19T13:16:39.865Z,35.6
2018-08-19T13:17:49.898Z,35.42
2018-08-19T13:18:59.899Z,34.96
2018-08-19T13:20:09.638Z,35.16
2018-08-19T13:21:19.632Z,35.57
2018-08-19T13:22:29.622Z,35.6
2018-08-19T13:23:39.607Z,35.66
2018-08-19T13:24:49.340Z,35.75
2018-08-19T13:25:59.091Z,35.26
2018-08-19T13:27:09.079Z,35.05
2018-08-19T13:28:18.826Z,34.59
2018-08-19T13:29:28.811Z,34.21
2018-08-19T13:30:38.275Z,34.09
2018-08-19T13:31:48.010Z,33.6
2018-08-19T13:32:58.014Z,33.15
2018-08-19T13:34:07.477Z,33.01
2018-08-19T13:35:17.478Z,33.05
2018-08-19T13:36:27.219Z,33.26
2018-08-19T13:37:37.221Z,33.36
2018-08-19T13:38:47.209Z,33.47
2018-08-19T13:39:56.940Z,33.51
2018-08-19T13:41:06.952Z,33.65
2018-08-19T13:42:16.930Z,33.72
2018-08-19T13:43:26.681Z,33.77
2018-08-19T13:44:36.405Z,33.38
2018-08-19T13:45:46.134Z,33.31
2018-08-19T13:46:55.599Z,33.4
2018-08-19T13:48:05.583Z,33.5
2018-08-19T13:49:15.606Z,33.29
2018-08-19T13:50:25.604Z,32.95
2018-08-19T13:51:35.326Z,32.76
2018-08-19T13:52:45.318Z,32.57
2018-08-19T13:53:55.052Z,32.45
2018-08-19T13:55:04.783Z,32.41
2018-08-19T13:56:14.791Z,32.67
2018-08-19T13:57:24.251Z,32.64
2018-08-19T13:58:33.993Z,32.67
2018-08-19T13:59:43.713Z,32.53
2018-08-19T14:00:53.730Z,32.56
2018-08-19T14:02:03.765Z,32.72
2018-08-19T14:03:13.769Z,33.22
2018-08-19T14:04:23.785Z,33.6
2018-08-19T14:05:33.261Z,34.18
2018-08-19T14:06:43.016Z,34.28
2018-08-19T14:07:52.770Z,34.51
2018-08-19T14:09:02.755Z,34.98
2018-08-19T14:10:12.778Z,35.56
2018-08-19T14:11:22.797Z,35.98
2018-08-19T14:12:32.285Z,36.29
2018-08-19T14:13:42.298Z,36.69
2018-08-19T14:14:52.283Z,36.31
2018-08-19T14:16:02.013Z,36.05
2018-08-19T14:17:11.765Z,36.17
2018-08-19T14:18:21.769Z,36.03
2018-08-19T14:19:31.766Z,35.27
2018-08-19T14:20:41.514Z,34.25
2018-08-19T14:21:51.263Z,33.73
2018-08-19T14:23:01.267Z,33.7
2018-08-19T14:24:11.254Z,33.65
2018-08-19T14:25:20.986Z,33.53
2018-08-19T14:26:30.721Z,33.5
2018-08-19T14:27:40.742Z,33.48
2018-08-19T14:28:50.731Z,33.54
2018-08-19T14:30:01.046Z,33.88
2018-08-19T14:31:10.936Z,33.84
2018-08-19T14:32:20.927Z,33.7
2018-08-19T14:33:30.658Z,33.75
2018-08-19T14:34:40.648Z,33.77
2018-08-19T14:35:50.126Z,33.55
2018-08-19T14:37:00.241Z,33.54
2018-08-19T14:38:10.317Z,33.32
2018-08-19T14:39:20.323Z,33.32
2018-08-19T14:40:30.934Z,33.53
2018-08-19T14:41:41.302Z,33.55
2018-08-19T14:42:50.810Z,33.51
2018-08-19T14:44:00.811Z,33.16
2018-08-19T14:45:10.798Z,32.81
2018-08-19T14:46:20.730Z,32.57
2018-08-19T14:47:30.850Z,32.64
2018-08-19T14:48:40.592Z,32.9
2018-08-19T14:49:50.608Z,33.45
2018-08-19T14:51:00.331Z,33.69
2018-08-19T14:52:10.323Z,34.1
2018-08-19T14:53:20.071Z,34.22
2018-08-19T14:54:30.067Z,34.26
2018-08-19T14:55:39.823Z,34.26
2018-08-19T14:56:49.538Z,34.26
2018-08-19T14:57:59.337Z,34.16
2018-08-19T14:59:09.334Z,34.22
2018-08-19T15:00:19.076Z,33.87
2018-08-19T15:01:29.049Z,33.53
2018-08-19T15:02:39.061Z,33.69